createdAt,value
2023-05-16T00:01:03.885Z,98.22
2023-05-16T00:03:52.434Z,98.32
2023-05-16T00:06:42.480Z,97.77
2023-05-16T00:09:30.966Z,99.68
2023-05-16T00:12:19.760Z,100.00
2023-05-16T00:15:12.583Z,100.00
2023-05-16T00:18:01.292Z,100.00
2023-05-16T00:20:49.895Z,100.00
2023-05-16T00:23:39.768Z,100.00
2023-05-16T00:26:28.290Z,100.00
2023-05-16T00:29:16.817Z,100.00
2023-05-16T00:32:08.570Z,100.00
2023-05-16T00:34:57.276Z,100.00
2023-05-16T00:37:45.864Z,100.00
2023-05-16T00:40:35.693Z,100.00
2023-05-16T00:43:24.214Z,100.00
2023-05-16T00:46:12.752Z,100.00
2023-05-16T00:49:01.366Z,100.00
2023-05-16T00:51:49.929Z,100.00
2023-05-16T00:54:38.483Z,100.00
2023-05-16T00:57:28.454Z,100.00
2023-05-16T01:00:17.429Z,100.00
2023-05-16T01:03:06.535Z,100.00
2023-05-16T01:05:55.189Z,100.00
2023-05-16T01:08:43.738Z,100.00
2023-05-16T01:11:37.517Z,100.00
2023-05-16T01:14:32.906Z,100.00
2023-05-16T01:17:26.794Z,100.00
2023-05-16T01:20:23.448Z,100.00
2023-05-16T01:23:23.944Z,100.00
2023-05-16T01:26:19.327Z,100.00
2023-05-16T01:29:08.468Z,100.00
2023-05-16T01:31:58.382Z,100.00
2023-05-16T01:34:46.975Z,100.00
2023-05-16T01:37:38.133Z,100.00
2023-05-16T01:40:33.396Z,100.00
2023-05-16T01:43:30.490Z,100.00
2023-05-16T01:46:24.417Z,100.00
2023-05-16T01:49:17.819Z,100.00
2023-05-16T01:52:10.277Z,100.00
2023-05-16T01:55:00.378Z,100.00
2023-05-16T01:57:50.108Z,100.00
2023-05-16T02:00:41.138Z,100.00
2023-05-16T02:03:29.692Z,100.00
2023-05-16T02:06:18.312Z,100.00
2023-05-16T02:09:06.806Z,100.00
2023-05-16T02:11:55.338Z,100.00
2023-05-16T02:14:43.804Z,100.00
2023-05-16T02:17:33.760Z,100.00
2023-05-16T02:20:22.285Z,100.00
2023-05-16T02:23:10.777Z,100.00
2023-05-16T02:25:59.284Z,100.00
2023-05-16T02:28:49.479Z,100.00
2023-05-16T02:31:38.047Z,100.00
2023-05-16T02:34:28.451Z,100.00
2023-05-16T02:37:17.160Z,100.00
2023-05-16T02:40:07.431Z,100.00
2023-05-16T02:42:55.953Z,100.00
2023-05-16T02:45:47.556Z,100.00
2023-05-16T02:48:36.061Z,100.00
2023-05-16T02:51:27.341Z,100.00
2023-05-16T02:54:15.820Z,100.00
2023-05-16T02:57:04.448Z,100.00
2023-05-16T02:59:52.921Z,100.00
2023-05-16T03:02:41.804Z,100.00
2023-05-16T03:05:30.629Z,100.00
2023-05-16T03:08:20.636Z,100.00
2023-05-16T03:11:09.152Z,100.00
2023-05-16T03:14:01.575Z,100.00
2023-05-16T03:16:50.843Z,100.00
2023-05-16T03:19:39.552Z,100.00
2023-05-16T03:22:28.059Z,100.00
2023-05-16T03:25:17.967Z,100.00
2023-05-16T03:28:06.973Z,100.00
2023-05-16T03:30:55.429Z,100.00
2023-05-16T03:33:44.022Z,100.00
2023-05-16T03:36:32.459Z,100.00
2023-05-16T03:39:20.953Z,100.00
2023-05-16T03:42:11.027Z,100.00
2023-05-16T03:44:59.521Z,100.00
2023-05-16T03:47:49.903Z,100.00
2023-05-16T03:50:40.774Z,100.00
2023-05-16T03:53:29.579Z,100.00
2023-05-16T03:56:18.359Z,100.00
2023-05-16T03:59:08.319Z,100.00
2023-05-16T04:01:56.870Z,100.00
2023-05-16T04:04:45.879Z,100.00
2023-05-16T04:07:34.662Z,100.00
2023-05-16T04:10:23.286Z,100.00
2023-05-16T04:13:11.795Z,100.00
2023-05-16T04:16:01.760Z,100.00
2023-05-16T04:18:50.222Z,100.00
2023-05-16T04:21:38.651Z,100.00
2023-05-16T04:24:29.937Z,100.00
2023-05-16T04:27:18.559Z,100.00
2023-05-16T04:30:08.361Z,100.00
2023-05-16T04:32:59.391Z,100.00
2023-05-16T04:35:48.561Z,100.00
2023-05-16T04:38:37.712Z,100.00
2023-05-16T04:41:26.289Z,100.00
2023-05-16T04:44:14.810Z,100.00
2023-05-16T04:47:03.519Z,100.00
2023-05-16T04:49:53.398Z,100.00
2023-05-16T04:52:41.849Z,100.00
2023-05-16T04:55:30.696Z,100.00
2023-05-16T04:58:19.605Z,100.00
2023-05-16T05:01:08.082Z,100.00
2023-05-16T05:03:56.585Z,100.00
2023-05-16T05:06:46.462Z,100.00
2023-05-16T05:09:34.934Z,100.00
2023-05-16T05:12:23.670Z,100.00
2023-05-16T05:15:13.244Z,100.00
2023-05-16T05:18:01.986Z,100.00
2023-05-16T05:20:52.693Z,100.00
2023-05-16T05:23:42.589Z,100.00
2023-05-16T05:26:31.308Z,100.00
2023-05-16T05:29:20.234Z,100.00
2023-05-16T05:32:09.394Z,100.00
2023-05-16T05:34:58.010Z,100.00
2023-05-16T05:37:46.506Z,100.00
2023-05-16T05:40:36.400Z,100.00
2023-05-16T05:43:24.869Z,100.00
2023-05-16T05:46:13.430Z,100.00
2023-05-16T05:49:02.179Z,100.00
2023-05-16T05:51:52.154Z,100.00
2023-05-16T05:54:40.941Z,100.00
2023-05-16T05:57:30.766Z,100.00
2023-05-16T06:00:19.600Z,100.00
2023-05-16T06:03:08.131Z,100.00
2023-05-16T06:05:56.753Z,100.00
2023-05-16T06:08:45.381Z,100.00
2023-05-16T06:11:33.858Z,100.00
2023-05-16T06:14:23.712Z,100.00
2023-05-16T06:17:12.333Z,100.00
2023-05-16T06:20:00.927Z,100.00
2023-05-16T06:22:49.467Z,100.00
2023-05-16T06:25:38.009Z,100.00
2023-05-16T06:28:26.585Z,100.00
2023-05-16T06:31:16.464Z,100.00
2023-05-16T06:34:05.054Z,100.00
2023-05-16T06:36:53.504Z,100.00
2023-05-16T06:39:42.269Z,100.00
2023-05-16T06:42:30.787Z,100.00
2023-05-16T06:45:19.343Z,100.00
2023-05-16T06:48:09.472Z,100.00
2023-05-16T06:50:58.390Z,99.73
2023-05-16T06:53:46.893Z,100.00
2023-05-16T06:56:35.894Z,97.66
2023-05-16T06:59:25.203Z,98.31
2023-05-16T07:02:15.453Z,97.95
2023-05-16T07:05:06.012Z,97.97
2023-05-16T07:07:54.974Z,98.44
2023-05-16T07:10:43.608Z,100.00
2023-05-16T07:13:33.704Z,100.00
2023-05-16T07:16:24.259Z,100.00
2023-05-16T07:19:12.834Z,99.75
2023-05-16T07:22:02.847Z,97.95
2023-05-16T07:24:53.274Z,98.77
2023-05-16T07:27:44.635Z,98.87
2023-05-16T07:30:33.422Z,96.92
2023-05-16T07:33:21.985Z,98.01
2023-05-16T07:36:17.026Z,97.23
2023-05-16T07:39:07.295Z,97.51
2023-05-16T07:41:55.951Z,96.46
2023-05-16T07:44:45.259Z,96.79
2023-05-16T07:47:33.858Z,96.14
2023-05-16T07:50:22.501Z,94.73
2023-05-16T07:53:11.301Z,94.35
2023-05-16T07:56:01.202Z,93.20
2023-05-16T07:58:50.421Z,91.85
2023-05-16T08:01:38.928Z,92.01
2023-05-16T08:04:27.504Z,91.28
2023-05-16T08:07:16.079Z,91.21
2023-05-16T08:10:05.090Z,90.58
2023-05-16T08:12:55.020Z,91.14
2023-05-16T08:15:43.627Z,91.31
2023-05-16T08:18:32.235Z,91.03
2023-05-16T08:21:20.790Z,90.64
2023-05-16T08:24:11.197Z,90.77
2023-05-16T08:26:59.789Z,91.75
2023-05-16T08:29:49.599Z,91.79
2023-05-16T08:32:38.271Z,92.06
2023-05-16T08:35:27.017Z,92.94
2023-05-16T08:38:15.692Z,92.94
2023-05-16T08:41:04.527Z,93.54
2023-05-16T08:43:53.507Z,93.05
2023-05-16T08:46:44.288Z,93.40
2023-05-16T08:49:33.591Z,92.80
2023-05-16T08:52:22.867Z,91.84
2023-05-16T08:55:12.638Z,91.72
2023-05-16T08:58:01.804Z,89.65
2023-05-16T09:00:50.573Z,90.55
2023-05-16T09:03:40.988Z,90.12
2023-05-16T09:06:29.808Z,88.67
2023-05-16T09:09:18.313Z,88.37
2023-05-16T09:12:07.379Z,87.26
2023-05-16T09:14:55.975Z,87.73
2023-05-16T09:17:46.672Z,88.02
2023-05-16T09:20:40.345Z,86.41
2023-05-16T09:23:28.932Z,87.00
2023-05-16T09:26:17.645Z,86.75
2023-05-16T09:29:12.097Z,85.96
2023-05-16T09:32:06.590Z,84.79
2023-05-16T09:34:58.540Z,84.46
2023-05-16T09:37:48.472Z,84.90
2023-05-16T09:40:41.776Z,84.46
2023-05-16T09:43:30.385Z,83.39
2023-05-16T09:46:19.841Z,81.19
2023-05-16T09:49:08.699Z,78.99
2023-05-16T09:51:57.320Z,78.42
2023-05-16T09:54:48.919Z,78.98
2023-05-16T09:57:39.519Z,77.85
2023-05-16T10:00:31.178Z,78.68
2023-05-16T10:03:20.041Z,79.24
2023-05-16T10:06:09.254Z,79.57
2023-05-16T10:08:57.878Z,81.04
2023-05-16T10:11:48.107Z,81.43
2023-05-16T10:14:37.895Z,80.92
2023-05-16T10:17:27.395Z,80.58
2023-05-16T10:20:16.698Z,82.53
2023-05-16T10:23:05.680Z,82.64
2023-05-16T10:25:55.163Z,82.39
2023-05-16T10:28:45.311Z,80.70
2023-05-16T10:31:34.138Z,80.46
2023-05-16T10:34:23.355Z,80.05
2023-05-16T10:37:11.842Z,80.46
2023-05-16T10:40:01.217Z,81.41
2023-05-16T10:42:56.939Z,80.23
2023-05-16T10:45:55.679Z,82.47
2023-05-16T10:48:44.225Z,82.15
2023-05-16T10:51:39.851Z,81.89
2023-05-16T10:54:36.073Z,82.07
2023-05-16T10:57:25.188Z,82.03
2023-05-16T11:00:23.456Z,81.18
2023-05-16T11:03:25.324Z,82.76
2023-05-16T11:06:14.107Z,82.06
2023-05-16T11:09:06.580Z,82.04
2023-05-16T11:12:00.592Z,81.07
2023-05-16T11:14:52.647Z,77.47
2023-05-16T11:17:43.434Z,77.78
2023-05-16T11:20:36.073Z,76.60
2023-05-16T11:23:26.957Z,77.29
2023-05-16T11:26:15.633Z,77.01
2023-05-16T11:29:04.682Z,77.19
2023-05-16T11:31:54.151Z,78.02
2023-05-16T11:34:43.218Z,77.69
2023-05-16T11:37:33.235Z,78.29
2023-05-16T11:40:22.186Z,78.23
2023-05-16T11:43:10.970Z,77.58
2023-05-16T11:46:00.032Z,78.11
2023-05-16T11:48:48.825Z,75.59
2023-05-16T11:51:39.221Z,77.21
2023-05-16T11:54:29.295Z,76.56
2023-05-16T11:57:17.939Z,77.26
2023-05-16T12:00:11.572Z,76.80
2023-05-16T12:03:04.394Z,75.96
2023-05-16T12:05:54.522Z,74.44
2023-05-16T12:08:51.210Z,74.84
2023-05-16T12:11:42.723Z,76.17
2023-05-16T12:14:31.372Z,76.12
2023-05-16T12:17:22.235Z,75.80
2023-05-16T12:20:14.347Z,75.23
2023-05-16T12:23:02.911Z,74.45
2023-05-16T12:25:52.987Z,74.31
2023-05-16T12:28:44.558Z,73.83
2023-05-16T12:31:37.012Z,73.24
2023-05-16T12:34:29.769Z,72.95
2023-05-16T12:37:18.310Z,71.62
2023-05-16T12:40:09.442Z,71.77
2023-05-16T12:42:58.216Z,71.55
2023-05-16T12:45:53.698Z,72.25
2023-05-16T12:48:44.122Z,73.42
2023-05-16T12:51:35.375Z,72.41
2023-05-16T12:54:24.260Z,72.67
2023-05-16T12:57:12.818Z,73.98
2023-05-16T13:00:01.286Z,75.08
2023-05-16T13:02:52.335Z,73.37
2023-05-16T13:05:41.054Z,75.08
2023-05-16T13:08:29.781Z,75.16
2023-05-16T13:11:19.041Z,74.97
2023-05-16T13:14:07.570Z,74.44
2023-05-16T13:16:56.105Z,74.37
2023-05-16T13:19:48.256Z,75.25
2023-05-16T13:22:37.702Z,74.63
2023-05-16T13:25:26.578Z,73.91
2023-05-16T13:28:15.877Z,73.51
2023-05-16T13:31:04.516Z,72.62
2023-05-16T13:33:53.105Z,70.59
2023-05-16T13:36:53.798Z,70.05
2023-05-16T13:39:42.784Z,69.75
2023-05-16T13:42:31.379Z,69.03
2023-05-16T13:45:19.884Z,67.08
2023-05-16T13:48:08.451Z,66.59
2023-05-16T13:50:57.080Z,68.25
2023-05-16T13:53:46.950Z,66.64
2023-05-16T13:56:35.497Z,67.46
2023-05-16T13:59:41.107Z,68.02
2023-05-16T14:02:32.557Z,64.78
2023-05-16T14:05:21.101Z,63.62
2023-05-16T14:08:09.841Z,64.71
2023-05-16T14:10:59.760Z,65.86
2023-05-16T14:13:49.401Z,62.23
2023-05-16T14:16:38.157Z,60.41
2023-05-16T14:19:26.869Z,62.22
2023-05-16T14:22:15.436Z,60.80
2023-05-16T14:25:04.686Z,61.62
2023-05-16T14:27:54.557Z,59.92
2023-05-16T14:30:43.261Z,61.49
2023-05-16T14:33:32.846Z,60.84
2023-05-16T14:36:21.431Z,63.16
2023-05-16T14:39:10.093Z,61.67
2023-05-16T14:41:58.608Z,61.81
2023-05-16T14:44:48.472Z,62.32
2023-05-16T14:47:37.088Z,61.74
2023-05-16T14:50:25.675Z,60.40
2023-05-16T14:53:14.209Z,60.39
2023-05-16T14:56:03.818Z,59.89
2023-05-16T14:58:52.365Z,57.85
2023-05-16T15:01:42.434Z,57.52
2023-05-16T15:04:31.120Z,58.64
2023-05-16T15:07:20.588Z,57.56
2023-05-16T15:10:10.180Z,57.50
2023-05-16T15:12:59.788Z,57.35
2023-05-16T15:15:48.397Z,57.16
2023-05-16T15:18:38.490Z,55.93
2023-05-16T15:21:27.147Z,53.44
2023-05-16T15:24:16.614Z,54.54
2023-05-16T15:27:05.392Z,54.30
2023-05-16T15:29:53.901Z,52.33
2023-05-16T15:32:45.351Z,53.38
2023-05-16T15:35:35.676Z,52.65
2023-05-16T15:38:27.253Z,52.10
2023-05-16T15:41:32.010Z,52.11
2023-05-16T15:44:24.769Z,53.61
2023-05-16T15:47:13.373Z,53.49
2023-05-16T15:50:02.033Z,53.02
2023-05-16T15:52:52.066Z,53.15
2023-05-16T15:55:40.935Z,52.83
2023-05-16T15:58:29.464Z,54.28
2023-05-16T16:01:20.468Z,53.54
2023-05-16T16:04:14.701Z,53.96
2023-05-16T16:07:03.227Z,52.21
2023-05-16T16:09:53.168Z,53.70
2023-05-16T16:12:41.720Z,52.88
2023-05-16T16:15:33.183Z,52.68
2023-05-16T16:18:22.148Z,53.89
2023-05-16T16:21:10.983Z,52.73
2023-05-16T16:23:59.483Z,53.28
2023-05-16T16:26:49.329Z,53.18
2023-05-16T16:29:37.938Z,54.42
2023-05-16T16:32:26.450Z,53.55
2023-05-16T16:35:15.147Z,55.18
2023-05-16T16:38:07.134Z,54.23
2023-05-16T16:40:55.760Z,55.68
2023-05-16T16:43:45.725Z,55.15
2023-05-16T16:46:34.395Z,53.95
2023-05-16T16:49:22.956Z,53.88
2023-05-16T16:52:11.570Z,53.59
2023-05-16T16:55:00.078Z,53.92
2023-05-16T16:57:48.670Z,54.97
2023-05-16T17:00:38.774Z,54.55
2023-05-16T17:03:27.512Z,52.55
2023-05-16T17:06:16.097Z,50.24
2023-05-16T17:09:06.813Z,49.52
2023-05-16T17:11:55.591Z,47.75
2023-05-16T17:14:44.113Z,49.09
2023-05-16T17:17:34.085Z,48.72
2023-05-16T17:20:22.654Z,49.18
2023-05-16T17:23:11.304Z,49.62
2023-05-16T17:25:59.828Z,47.69
2023-05-16T17:28:49.787Z,47.34
2023-05-16T17:31:38.268Z,47.04
2023-05-16T17:34:28.204Z,47.85
2023-05-16T17:37:17.290Z,46.52
2023-05-16T17:40:09.919Z,46.27
2023-05-16T17:42:58.492Z,45.97
2023-05-16T17:45:47.201Z,46.22
2023-05-16T17:48:35.982Z,46.53
2023-05-16T17:51:26.133Z,45.56
2023-05-16T17:54:15.575Z,45.87
2023-05-16T17:57:06.012Z,45.98
2023-05-16T17:59:54.910Z,45.57
2023-05-16T18:02:43.892Z,45.90
2023-05-16T18:05:32.632Z,46.63
2023-05-16T18:08:23.148Z,45.33
2023-05-16T18:11:11.978Z,45.69
2023-05-16T18:14:00.687Z,45.23
2023-05-16T18:16:49.209Z,45.45
2023-05-16T18:19:37.882Z,44.83
2023-05-16T18:22:27.558Z,44.72
2023-05-16T18:25:17.669Z,44.29
2023-05-16T18:28:06.351Z,44.41
2023-05-16T18:30:54.974Z,44.86
2023-05-16T18:33:43.562Z,44.93
2023-05-16T18:36:32.145Z,44.67
2023-05-16T18:39:21.203Z,44.96
2023-05-16T18:42:11.421Z,45.48
2023-05-16T18:44:59.986Z,46.20
2023-05-16T18:47:48.671Z,45.92
2023-05-16T18:50:37.336Z,44.74
2023-05-16T18:53:25.969Z,45.79
2023-05-16T18:56:14.528Z,45.47
2023-05-16T18:59:04.404Z,44.89
2023-05-16T19:01:52.898Z,45.70
2023-05-16T19:04:41.538Z,45.96
2023-05-16T19:07:30.033Z,45.06
2023-05-16T19:10:18.678Z,45.84
2023-05-16T19:13:08.758Z,47.37
2023-05-16T19:15:58.736Z,47.61
2023-05-16T19:18:47.793Z,47.32
2023-05-16T19:21:36.789Z,48.68
2023-05-16T19:24:25.279Z,50.24
2023-05-16T19:27:13.854Z,51.20
2023-05-16T19:30:02.561Z,51.24
2023-05-16T19:32:52.482Z,53.30
2023-05-16T19:35:41.046Z,54.57
2023-05-16T19:38:29.710Z,55.59
2023-05-16T19:41:18.236Z,56.83
2023-05-16T19:44:07.004Z,60.78
2023-05-16T19:46:55.733Z,59.79
2023-05-16T19:49:45.876Z,59.49
2023-05-16T19:52:34.717Z,59.86
2023-05-16T19:55:23.548Z,57.75
2023-05-16T19:58:12.116Z,58.91
2023-05-16T20:01:00.681Z,59.83
2023-05-16T20:03:49.345Z,60.36
2023-05-16T20:06:39.265Z,61.37
2023-05-16T20:09:28.567Z,61.90
2023-05-16T20:12:17.171Z,62.91
2023-05-16T20:15:08.782Z,63.47
2023-05-16T20:17:57.702Z,63.38
2023-05-16T20:20:46.234Z,63.73
2023-05-16T20:23:38.112Z,62.68
2023-05-16T20:26:27.217Z,60.91
2023-05-16T20:29:15.878Z,57.99
2023-05-16T20:32:04.893Z,58.39
2023-05-16T20:34:53.401Z,60.28
2023-05-16T20:37:42.310Z,60.73
2023-05-16T20:40:32.153Z,60.99
2023-05-16T20:43:20.676Z,61.38
2023-05-16T20:46:09.371Z,62.53
2023-05-16T20:48:57.969Z,61.15
2023-05-16T20:51:46.580Z,58.30
2023-05-16T20:54:35.341Z,61.53
2023-05-16T20:57:25.388Z,59.81
2023-05-16T21:00:14.811Z,60.54
2023-05-16T21:03:03.379Z,62.05
2023-05-16T21:05:52.397Z,62.49
2023-05-16T21:08:40.894Z,63.09
2023-05-16T21:11:32.060Z,64.02
2023-05-16T21:14:22.191Z,62.40
2023-05-16T21:17:10.793Z,64.08
2023-05-16T21:19:59.424Z,64.74
2023-05-16T21:22:48.035Z,65.39
2023-05-16T21:25:36.853Z,66.37
2023-05-16T21:28:25.408Z,66.90
2023-05-16T21:31:15.238Z,67.01
2023-05-16T21:34:03.868Z,67.80
2023-05-16T21:36:53.784Z,67.58
2023-05-16T21:39:42.329Z,68.05
2023-05-16T21:42:31.116Z,66.86
2023-05-16T21:45:19.849Z,69.68
2023-05-16T21:48:09.835Z,71.18
2023-05-16T21:50:58.475Z,67.12
2023-05-16T21:53:47.107Z,67.96
2023-05-16T21:56:36.939Z,65.01
2023-05-16T21:59:25.603Z,64.69
2023-05-16T22:02:14.107Z,67.23
2023-05-16T22:05:04.927Z,67.24
2023-05-16T22:07:53.759Z,68.13
2023-05-16T22:10:42.381Z,68.59
2023-05-16T22:13:31.009Z,69.37
2023-05-16T22:16:19.769Z,70.92
2023-05-16T22:19:08.982Z,71.64
2023-05-16T22:21:59.225Z,71.58
2023-05-16T22:24:48.005Z,72.47
2023-05-16T22:27:36.722Z,72.52
2023-05-16T22:30:25.314Z,72.22
2023-05-16T22:33:13.959Z,72.82
2023-05-16T22:36:03.167Z,73.14
2023-05-16T22:38:56.065Z,72.10
2023-05-16T22:41:44.613Z,73.00
2023-05-16T22:44:33.181Z,70.08
2023-05-16T22:47:21.703Z,69.81
2023-05-16T22:50:11.131Z,71.72
2023-05-16T22:52:59.674Z,73.66
2023-05-16T22:55:49.547Z,72.23
2023-05-16T22:58:38.069Z,74.32
2023-05-16T23:01:26.907Z,75.09
2023-05-16T23:04:16.125Z,74.70
2023-05-16T23:07:04.722Z,73.02
2023-05-16T23:09:53.232Z,73.49
2023-05-16T23:12:43.122Z,72.88
2023-05-16T23:15:31.736Z,72.37
2023-05-16T23:18:20.361Z,72.39
2023-05-16T23:21:09.491Z,72.05
2023-05-16T23:23:58.098Z,72.24
2023-05-16T23:26:46.540Z,71.63
2023-05-16T23:29:36.419Z,72.04
2023-05-16T23:32:25.000Z,72.23
2023-05-16T23:35:13.531Z,71.21
2023-05-16T23:38:02.100Z,71.62
2023-05-16T23:40:50.595Z,71.58
2023-05-16T23:43:39.143Z,71.21
2023-05-16T23:46:29.031Z,71.67
2023-05-16T23:49:17.535Z,72.25
2023-05-16T23:52:06.731Z,72.65
2023-05-16T23:54:55.275Z,72.95
2023-05-16T23:57:43.808Z,73.06
